PWSweather.com
Personal Weather Stations
Station Observations
FAUSKE
Nordland, Norway, FauskeNO 8200

Nordland, NorwayFauskeNO 8200

Lat: 67.2607586, Lon: 15.4114204

Elevation: 40

Station Type: Davis Vantage PRO2

http://www.bjornli.net/weather.html

Latest ConditionsUpdated 11:40:09 AM GMT+01:01 Wednesday, Aug 20, 2014
Currently Today's Max Today's Min Today's Average
Temperature 64.8°F18.2°C 64.8°F18.2°C 52.0°F11.1°C 55.0°F12.8°C
Dew Point 52.8°F11.6°C 54.7°F12.6°C 49.4°F9.7°C 51.5°F10.8°C
Winds 5.0 mph SE8.0 kmh SE 10.0 mph E16.1 kmh E - 0.6 mph 1.0 kmh
Wind Gusts 15.0 mph24.1 kmh 15.0 mph24.1 kmh - -
Humidity 65% 95% 65% 88%
Pressure 29.38 in994.9 mb 29.38 in994.9 mb 29.34 in993.6 mb -
Hour Temp Dew Point Humidity Winds Wind Gusts Pressure Precip Precip Rate Daily Precip Total
11:40 AM 64.8°F18.2°C 52.8°F11.6°C 65% 5.0 mph SE8.0 kmh SE 15.0 mph24.1 kmh 29.38 in994.9 mb 0.00 in0.0 mm 0.00 in/hr0.0 mm/hr 0.00 in0.0 mm
11:30 AM 64.7°F18.2°C 54.7°F12.6°C 70% 2.0 mph E3.2 kmh E 8.0 mph12.9 kmh 29.38 in994.9 mb 0.00 in0.0 mm 0.00 in/hr0.0 mm/hr 0.00 in0.0 mm
11:10 AM 62.4°F16.9°C 52.9°F11.6°C 71% 10.0 mph E16.1 kmh E 11.0 mph17.7 kmh 29.37 in994.6 mb 0.00 in0.0 mm 0.00 in/hr0.0 mm/hr 0.00 in0.0 mm
11:00 AM 62.0°F16.7°C 52.5°F11.4°C 71% 3.0 mph ESE4.8 kmh ESE 4.0 mph6.4 kmh 29.37 in994.6 mb 0.00 in0.0 mm 0.00 in/hr0.0 mm/hr 0.00 in0.0 mm
10:40 AM 61.5°F16.4°C 52.4°F11.3°C 72% 4.0 mph ESE6.4 kmh ESE 8.0 mph12.9 kmh 29.38 in994.9 mb 0.00 in0.0 mm 0.00 in/hr0.0 mm/hr 0.00 in0.0 mm
10:30 AM 61.2°F16.2°C 53.2°F11.8°C 75% 4.0 mph E6.4 kmh E 4.0 mph6.4 kmh 29.37 in994.6 mb 0.00 in0.0 mm 0.00 in/hr0.0 mm/hr 0.00 in0.0 mm
10:10 AM 60.2°F15.7°C 54.0°F12.2°C 80% Calm Calm -- 29.37 in994.6 mb 0.00 in0.0 mm 0.00 in/hr0.0 mm/hr 0.00 in0.0 mm
10:00 AM 59.5°F15.3°C 54.0°F12.2°C 82% Calm Calm -- 29.37 in994.6 mb 0.00 in0.0 mm 0.00 in/hr0.0 mm/hr 0.00 in0.0 mm
09:40 AM 58.5°F14.7°C 54.3°F12.4°C 86% Calm Calm -- 29.38 in994.9 mb 0.00 in0.0 mm 0.00 in/hr0.0 mm/hr 0.00 in0.0 mm
09:30 AM 58.2°F14.6°C 54.4°F12.4°C 87% Calm Calm -- 29.37 in994.6 mb 0.00 in0.0 mm 0.00 in/hr0.0 mm/hr 0.00 in0.0 mm
09:10 AM 57.2°F14.0°C 53.7°F12.1°C 88% Calm Calm -- 29.37 in994.6 mb 0.00 in0.0 mm 0.00 in/hr0.0 mm/hr 0.00 in0.0 mm
09:00 AM 56.7°F13.7°C 53.2°F11.8°C 88% Calm Calm -- 29.37 in994.6 mb 0.00 in0.0 mm 0.00 in/hr0.0 mm/hr 0.00 in0.0 mm
08:40 AM 56.4°F13.6°C 53.8°F12.1°C 91% Calm Calm -- 29.37 in994.6 mb 0.00 in0.0 mm 0.00 in/hr0.0 mm/hr 0.00 in0.0 mm
08:30 AM 55.9°F13.3°C 53.3°F11.8°C 91% Calm Calm -- 29.37 in994.6 mb 0.00 in0.0 mm 0.00 in/hr0.0 mm/hr 0.00 in0.0 mm
08:10 AM 55.5°F13.1°C 53.2°F11.8°C 92% Calm Calm -- 29.37 in994.6 mb 0.00 in0.0 mm 0.00 in/hr0.0 mm/hr 0.00 in0.0 mm
08:00 AM 54.9°F12.7°C 52.6°F11.4°C 92% Calm Calm -- 29.37 in994.6 mb 0.00 in0.0 mm 0.00 in/hr0.0 mm/hr 0.00 in0.0 mm
07:40 AM 54.5°F12.5°C 52.5°F11.4°C 93% Calm Calm -- 29.37 in994.6 mb 0.00 in0.0 mm 0.00 in/hr0.0 mm/hr 0.00 in0.0 mm
07:30 AM 54.3°F12.4°C 52.6°F11.4°C 94% Calm Calm -- 29.36 in994.2 mb 0.00 in0.0 mm 0.00 in/hr0.0 mm/hr 0.00 in0.0 mm
07:10 AM 53.8°F12.1°C 52.1°F11.2°C 94% Calm Calm -- 29.36 in994.2 mb 0.00 in0.0 mm 0.00 in/hr0.0 mm/hr 0.00 in0.0 mm
07:00 AM 53.6°F12.0°C 51.9°F11.1°C 94% Calm Calm -- 29.36 in994.2 mb 0.00 in0.0 mm 0.00 in/hr0.0 mm/hr 0.00 in0.0 mm
06:40 AM 53.1°F11.7°C 51.7°F10.9°C 95% Calm Calm -- 29.37 in994.6 mb 0.00 in0.0 mm 0.00 in/hr0.0 mm/hr 0.00 in0.0 mm
06:30 AM 52.9°F11.6°C 51.5°F10.8°C 95% Calm Calm -- 29.36 in994.2 mb 0.00 in0.0 mm 0.00 in/hr0.0 mm/hr 0.00 in0.0 mm
06:10 AM 52.5°F11.4°C 51.1°F10.6°C 95% Calm Calm -- 29.36 in994.2 mb 0.00 in0.0 mm 0.00 in/hr0.0 mm/hr 0.00 in0.0 mm
06:00 AM 52.4°F11.3°C 51.0°F10.6°C 95% Calm Calm -- 29.36 in994.2 mb 0.00 in0.0 mm 0.00 in/hr0.0 mm/hr 0.00 in0.0 mm
05:40 AM 52.2°F11.2°C 50.5°F10.3°C 94% Calm Calm -- 29.35 in993.9 mb 0.00 in0.0 mm 0.00 in/hr0.0 mm/hr 0.00 in0.0 mm
05:30 AM 52.2°F11.2°C 50.5°F10.3°C 94% Calm Calm -- 29.35 in993.9 mb 0.00 in0.0 mm 0.00 in/hr0.0 mm/hr 0.00 in0.0 mm
05:10 AM 52.1°F11.2°C 50.4°F10.2°C 94% Calm Calm -- 29.36 in994.2 mb 0.00 in0.0 mm 0.00 in/hr0.0 mm/hr 0.00 in0.0 mm
05:00 AM 52.0°F11.1°C 50.3°F10.2°C 94% Calm Calm -- 29.35 in993.9 mb 0.00 in0.0 mm 0.00 in/hr0.0 mm/hr 0.00 in0.0 mm
04:40 AM 52.1°F11.2°C 50.4°F10.2°C 94% Calm Calm -- 29.35 in993.9 mb 0.00 in0.0 mm 0.00 in/hr0.0 mm/hr 0.00 in0.0 mm
04:30 AM 52.0°F11.1°C 50.3°F10.2°C 94% Calm Calm -- 29.35 in993.9 mb 0.00 in0.0 mm 0.00 in/hr0.0 mm/hr 0.00 in0.0 mm
04:10 AM 52.1°F11.2°C 50.1°F10.1°C 93% Calm Calm -- 29.35 in993.9 mb 0.00 in0.0 mm 0.00 in/hr0.0 mm/hr 0.00 in0.0 mm
04:00 AM 52.1°F11.2°C 50.1°F10.1°C 93% Calm Calm -- 29.35 in993.9 mb 0.00 in0.0 mm 0.00 in/hr0.0 mm/hr 0.00 in0.0 mm
03:40 AM 52.0°F11.1°C 50.0°F10.0°C 93% Calm Calm -- 29.36 in994.2 mb 0.00 in0.0 mm 0.00 in/hr0.0 mm/hr 0.00 in0.0 mm
03:30 AM 52.0°F11.1°C 50.0°F10.0°C 93% Calm Calm -- 29.36 in994.2 mb 0.00 in0.0 mm 0.00 in/hr0.0 mm/hr 0.00 in0.0 mm
03:10 AM 52.2°F11.2°C 50.0°F10.0°C 92% Calm Calm -- 29.35 in993.9 mb 0.00 in0.0 mm 0.00 in/hr0.0 mm/hr 0.00 in0.0 mm
03:00 AM 52.3°F11.3°C 50.3°F10.2°C 93% Calm Calm -- 29.35 in993.9 mb 0.00 in0.0 mm 0.00 in/hr0.0 mm/hr 0.00 in0.0 mm
02:40 AM 52.3°F11.3°C 50.1°F10.1°C 92% Calm Calm -- 29.35 in993.9 mb 0.00 in0.0 mm 0.00 in/hr0.0 mm/hr 0.00 in0.0 mm
02:30 AM 52.2°F11.2°C 50.0°F10.0°C 92% Calm Calm -- 29.36 in994.2 mb 0.00 in0.0 mm 0.00 in/hr0.0 mm/hr 0.00 in0.0 mm
02:10 AM 52.5°F11.4°C 50.0°F10.0°C 91% Calm Calm -- 29.35 in993.9 mb 0.00 in0.0 mm 0.00 in/hr0.0 mm/hr 0.00 in0.0 mm
02:00 AM 52.5°F11.4°C 50.0°F10.0°C 91% Calm Calm -- 29.35 in993.9 mb 0.00 in0.0 mm 0.00 in/hr0.0 mm/hr 0.00 in0.0 mm
01:40 AM 52.7°F11.5°C 49.9°F9.9°C 90% Calm Calm -- 29.35 in993.9 mb 0.00 in0.0 mm 0.00 in/hr0.0 mm/hr 0.00 in0.0 mm
01:30 AM 52.9°F11.6°C 49.8°F9.9°C 89% Calm Calm -- 29.35 in993.9 mb 0.00 in0.0 mm 0.00 in/hr0.0 mm/hr 0.00 in0.0 mm
01:10 AM 53.5°F11.9°C 50.0°F10.0°C 88% Calm Calm -- 29.35 in993.9 mb 0.00 in0.0 mm 0.00 in/hr0.0 mm/hr 0.00 in0.0 mm
01:00 AM 53.6°F12.0°C 50.1°F10.1°C 88% Calm Calm -- 29.35 in993.9 mb 0.00 in0.0 mm 0.00 in/hr0.0 mm/hr 0.00 in0.0 mm
12:40 AM 53.7°F12.1°C 49.9°F9.9°C 87% Calm Calm -- 29.35 in993.9 mb 0.00 in0.0 mm 0.00 in/hr0.0 mm/hr 0.00 in0.0 mm
12:30 AM 53.7°F12.1°C 49.6°F9.8°C 86% Calm Calm -- 29.35 in993.9 mb 0.00 in0.0 mm 0.00 in/hr0.0 mm/hr 0.00 in0.0 mm
12:10 AM 53.8°F12.1°C 49.4°F9.7°C 85% Calm Calm -- 29.34 in993.6 mb 0.00 in0.0 mm 0.00 in/hr0.0 mm/hr 0.00 in0.0 mm
12:00 AM 53.8°F12.1°C 49.4°F9.7°C 85% Calm Calm -- 29.35 in993.9 mb 0.00 in0.0 mm 0.00 in/hr0.0 mm/hr 0.00 in0.0 mm